Time;durP1;ratioP1;P1;durP2;ratioP2;P2;SDS_P1;SDS_P2;PMS_P1;PMS_P2;Temp;Humidity;BMP_temperature;BMP_pressure;BME280_temperature;BME280_humidity;BME280_pressure;Samples;Min_cycle;Max_cycle;Signal;HPM_P1;HPM_P2
2023/05/27 00:06:08;;;;;;;;;;;;;;;23.46;46.15;100617.75;39841671;29;19925;-82
2023/05/27 00:26:08;;;;;;;;;;;;;;;23.39;46.44;100609.50;39837161;29;19921;-82
2023/05/27 00:46:09;;;;;;;;;;;;;;;23.34;46.14;100609.88;39844305;29;20012;-81
2023/05/27 01:06:31;;;;;;;;;;;;;;;23.43;46.27;100604.78;39848120;29;20870;-80
2023/05/27 01:26:32;;;;;;;;;;;;;;;23.32;46.31;100598.59;39856637;29;20006;-82
2023/05/27 01:46:32;;;;;;;;;;;;;;;23.20;46.48;100593.50;39841474;29;19967;-81
2023/05/27 02:06:33;;;;;;;;;;;;;;;23.10;46.79;100596.03;39836476;29;20020;-82
2023/05/27 02:26:33;;;;;;;;;;;;;;;22.99;46.78;100581.88;39851353;29;19948;-80
2023/05/27 02:46:34;;;;;;;;;;;;;;;22.97;46.88;100594.41;39858461;29;19982;-81
2023/05/27 03:06:35;;;;;;;;;;;;;;;22.90;46.92;100592.38;39843921;29;19929;-83
2023/05/27 03:26:37;;;;;;;;;;;;;;;22.86;46.94;100611.13;39823361;29;19939;-81
2023/05/27 03:46:37;;;;;;;;;;;;;;;22.82;46.27;100620.22;39850578;29;20008;-82
2023/05/27 04:06:38;;;;;;;;;;;;;;;22.79;46.01;100615.22;39844743;29;20346;-81
2023/05/27 04:26:40;;;;;;;;;;;;;;;22.84;45.95;100615.69;39823242;29;19960;-82
2023/05/27 04:46:43;;;;;;;;;;;;;;;22.78;45.79;100641.75;39821937;29;19924;-88
2023/05/27 05:06:43;;;;;;;;;;;;;;;22.86;45.65;100640.16;39831519;29;19935;-84
2023/05/27 05:26:46;;;;;;;;;;;;;;;23.03;45.39;100661.72;39845374;29;19932;-88
2023/05/27 05:46:47;;;;;;;;;;;;;;;23.14;44.81;100671.41;39873259;29;19931;-86
2023/05/27 06:06:47;;;;;;;;;;;;;;;23.28;45.82;100686.19;39834102;29;19960;-87
2023/05/27 06:26:49;;;;;;;;;;;;;;;23.47;47.03;100704.84;39822569;29;21146;-78
2023/05/27 06:46:50;;;;;;;;;;;;;;;23.66;47.39;100700.66;39829833;29;20020;-86
2023/05/27 07:06:52;;;;;;;;;;;;;;;23.76;46.51;100724.53;39863947;29;19932;-91
2023/05/27 07:26:53;;;;;;;;;;;;;;;23.85;46.55;100726.41;39894912;29;19935;-90
2023/05/27 07:46:53;;;;;;;;;;;;;;;23.93;46.32;100718.69;39887067;29;19936;-90
2023/05/27 08:06:53;;;;;;;;;;;;;;;23.99;46.46;100709.41;39883706;29;19925;-92
2023/05/27 08:26:54;;;;;;;;;;;;;;;24.04;46.60;100696.63;39888093;29;20011;-90
2023/05/27 08:46:55;;;;;;;;;;;;;;;24.08;46.47;100694.56;39877338;29;19929;-90
2023/05/27 09:06:56;;;;;;;;;;;;;;;24.14;46.46;100689.59;39875715;29;19932;-90
2023/05/27 09:26:56;;;;;;;;;;;;;;;24.20;46.53;100677.66;39903400;29;19932;-90
2023/05/27 09:46:58;;;;;;;;;;;;;;;24.28;46.48;100677.00;39887233;29;19963;-90
2023/05/27 10:07:01;;;;;;;;;;;;;;;24.34;46.51;100655.28;39884136;29;20078;-90
2023/05/27 10:27:03;;;;;;;;;;;;;;;24.42;46.50;100654.63;39901751;29;19925;-90
2023/05/27 10:47:03;;;;;;;;;;;;;;;24.50;46.47;100652.16;39869310;29;20419;-89
2023/05/27 11:07:04;;;;;;;;;;;;;;;24.55;46.51;100642.00;39882171;29;19929;-89
2023/05/27 11:27:11;;;;;;;;;;;;;;;24.60;46.50;100634.47;39879634;29;20401;-89
2023/05/27 11:47:11;;;;;;;;;;;;;;;24.65;46.50;100635.88;39898143;29;20143;-90
2023/05/27 12:07:14;;;;;;;;;;;;;;;24.72;46.38;100623.81;39883438;29;20018;-89
2023/05/27 12:27:14;;;;;;;;;;;;;;;24.87;46.39;100603.88;39867630;29;19929;-89
2023/05/27 12:47:15;;;;;;;;;;;;;;;24.95;46.15;100587.31;39879047;29;20752;-90
2023/05/27 13:07:15;;;;;;;;;;;;;;;24.96;45.97;100580.19;39882613;29;19925;-88
2023/05/27 13:27:15;;;;;;;;;;;;;;;24.93;46.05;100571.53;39884895;29;19932;-88
2023/05/27 13:47:15;;;;;;;;;;;;;;;24.94;46.23;100552.03;39885006;29;20444;-87
2023/05/27 14:07:17;;;;;;;;;;;;;;;25.04;46.21;100519.41;39893801;29;19928;-89
2023/05/27 14:27:17;;;;;;;;;;;;;;;24.99;46.09;100498.63;39890574;29;19929;-88
2023/05/27 14:47:17;;;;;;;;;;;;;;;25.02;46.39;100479.78;39885138;29;19972;-90
2023/05/27 15:07:18;;;;;;;;;;;;;;;25.16;46.28;100467.06;39870533;29;19967;-88
2023/05/27 15:27:18;;;;;;;;;;;;;;;25.26;45.84;100471.38;39882679;29;20317;-89
2023/05/27 15:47:19;;;;;;;;;;;;;;;25.32;45.71;100466.50;39890188;29;19932;-88
2023/05/27 16:07:20;;;;;;;;;;;;;;;25.25;45.88;100447.69;39888162;29;20017;-87
2023/05/27 16:27:20;;;;;;;;;;;;;;;25.27;46.17;100440.44;39877122;29;19950;-88
2023/05/27 16:47:24;;;;;;;;;;;;;;;25.24;46.17;100444.19;39871087;29;19925;-89
2023/05/27 17:07:24;;;;;;;;;;;;;;;25.14;46.49;100447.84;39875508;29;20001;-85
2023/05/27 17:27:24;;;;;;;;;;;;;;;25.04;46.29;100450.53;39884275;29;19925;-90
2023/05/27 17:47:25;;;;;;;;;;;;;;;24.98;46.46;100473.13;39926210;29;19983;-88
2023/05/27 18:07:25;;;;;;;;;;;;;;;24.92;46.78;100482.44;39903816;29;19971;-89
2023/05/27 18:27:25;;;;;;;;;;;;;;;24.84;46.34;100490.28;39904998;29;19929;-89
2023/05/27 18:47:26;;;;;;;;;;;;;;;24.72;46.69;100502.84;39878644;29;19932;-86
2023/05/27 19:07:26;;;;;;;;;;;;;;;24.67;46.87;100539.50;39883429;29;20389;-87
2023/05/27 19:27:26;;;;;;;;;;;;;;;24.66;47.05;100569.59;39897196;29;19931;-90
2023/05/27 19:47:27;;;;;;;;;;;;;;;24.62;47.06;100571.63;39886914;29;20304;-90
2023/05/27 20:07:27;;;;;;;;;;;;;;;24.59;46.82;100569.25;39885394;29;19997;-89
2023/05/27 20:27:28;;;;;;;;;;;;;;;24.55;46.87;100570.50;39860044;29;19931;-89
2023/05/27 20:47:30;;;;;;;;;;;;;;;24.54;46.88;100574.13;39883078;29;20289;-88
2023/05/27 21:07:30;;;;;;;;;;;;;;;24.52;46.94;100578.72;39896482;29;19959;-89
2023/05/27 21:27:30;;;;;;;;;;;;;;;24.51;46.75;100597.38;39903925;29;19936;-89
2023/05/27 21:47:30;;;;;;;;;;;;;;;24.49;46.75;100600.19;39896275;29;19929;-89
2023/05/27 22:07:31;;;;;;;;;;;;;;;24.48;46.70;100589.72;39888846;29;19925;-87
2023/05/27 22:27:32;;;;;;;;;;;;;;;24.45;46.57;100590.84;39891979;29;19932;-86
2023/05/27 22:47:32;;;;;;;;;;;;;;;24.44;46.43;100582.03;39889285;29;19932;-88
2023/05/27 23:07:32;;;;;;;;;;;;;;;24.43;46.49;100582.19;39908211;29;19960;-88
2023/05/27 23:27:33;;;;;;;;;;;;;;;24.39;46.38;100564.88;39897375;29;19928;-87
2023/05/27 23:47:33;;;;;;;;;;;;;;;24.40;46.42;100548.03;39895918;29;19978;-88
